Time;durP1;ratioP1;P1;durP2;ratioP2;P2;SDS_P1;SDS_P2;PMS_P1;PMS_P2;Temp;Humidity;BMP_temperature;BMP_pressure;BME280_temperature;BME280_humidity;BME280_pressure;Samples;Min_cycle;Max_cycle;Signal;HPM_P1;HPM_P2
2023/04/20 03:01:30;;;;;;;12.00;11.17;;;0.50;99.90;;;;;;5443953;23;20243;-74
2023/04/20 03:03:56;;;;;;;11.10;10.23;;;0.50;99.90;;;;;;4972679;28;20552;-75
2023/04/20 03:06:21;;;;;;;12.60;11.50;;;0.40;99.90;;;;;;4970112;28;20185;-75
2023/04/20 03:08:47;;;;;;;11.23;10.33;;;0.40;99.90;;;;;;4971614;28;20208;-75
2023/04/20 03:11:13;;;;;;;11.37;10.43;;;0.30;99.90;;;;;;4964086;28;20618;-75
2023/04/20 03:13:40;;;;;;;13.10;12.10;;;0.40;99.90;;;;;;4952904;28;20562;-75
2023/04/20 03:16:06;;;;;;;12.50;11.50;;;0.40;99.90;;;;;;4976459;23;20233;-73
2023/04/20 03:18:32;;;;;;;11.17;10.27;;;0.40;99.90;;;;;;4954699;28;20189;-73
2023/04/20 03:20:58;;;;;;;11.43;10.33;;;0.40;99.90;;;;;;4936327;29;20196;-72
2023/04/20 03:23:23;;;;;;;12.60;11.63;;;0.20;99.90;;;;;;4933121;29;20190;-73
2023/04/20 03:25:49;;;;;;;13.83;12.10;;;0.20;99.90;;;;;;4933042;29;20643;-72
2023/04/20 03:28:15;;;;;;;13.23;12.00;;;0.10;99.90;;;;;;4932492;29;20206;-72
2023/04/20 03:30:41;;;;;;;14.27;12.87;;;0.20;99.90;;;;;;4931721;29;20174;-71
2023/04/20 03:33:07;;;;;;;13.80;12.37;;;0.20;99.90;;;;;;4951703;29;20654;-72
2023/04/20 03:35:33;;;;;;;13.93;12.53;;;0.20;99.90;;;;;;4946457;28;20203;-72
2023/04/20 03:37:58;;;;;;;13.60;12.40;;;0.20;99.90;;;;;;4932965;29;20289;-72
2023/04/20 03:40:24;;;;;;;13.90;12.70;;;0.30;99.90;;;;;;4933174;29;20186;-72
2023/04/20 03:42:50;;;;;;;12.33;11.23;;;0.30;99.90;;;;;;4932118;29;20285;-72
2023/04/20 03:45:16;;;;;;;13.17;11.93;;;0.30;99.90;;;;;;4934774;29;20234;-72
2023/04/20 03:47:42;;;;;;;11.63;10.53;;;0.20;99.90;;;;;;4942428;29;20221;-71
2023/04/20 03:50:08;;;;;;;11.30;10.30;;;0.20;99.90;;;;;;4947569;29;20552;-72
2023/04/20 03:52:34;;;;;;;11.83;10.67;;;0.20;99.90;;;;;;4936169;29;20220;-72
2023/04/20 03:55:00;;;;;;;11.60;10.70;;;0.10;99.90;;;;;;4941244;29;20634;-72
2023/04/20 03:57:25;;;;;;;12.20;10.93;;;0.00;99.90;;;;;;4954203;29;20220;-71
2023/04/20 03:59:51;;;;;;;10.87;10.07;;;0.00;99.90;;;;;;4954922;28;20683;-72
2023/04/20 04:02:17;;;;;;;11.17;10.30;;;0.00;99.90;;;;;;4955488;28;20193;-75
2023/04/20 04:04:44;;;;;;;12.17;10.97;;;0.00;99.90;;;;;;4949709;28;20228;-72
2023/04/20 04:09:45;;;;;;;11.93;11.03;;;0.00;99.90;;;;;;5255596;23;20619;-73
2023/04/20 04:12:11;;;;;;;12.70;11.70;;;-0.10;99.90;;;;;;4953140;28;20189;-72
2023/04/20 04:14:36;;;;;;;15.37;14.23;;;-0.20;99.90;;;;;;4957030;28;20290;-73
2023/04/20 04:17:02;;;;;;;13.00;11.80;;;-0.20;99.90;;;;;;4972705;28;20263;-72
2023/04/20 04:19:28;;;;;;;14.03;12.93;;;-0.10;99.90;;;;;;4970977;28;20528;-73
2023/04/20 04:21:54;;;;;;;13.87;12.57;;;-0.10;99.90;;;;;;4978112;28;20177;-72
2023/04/20 04:24:20;;;;;;;12.73;11.53;;;-0.10;99.90;;;;;;4993486;23;20830;-76
2023/04/20 04:26:46;;;;;;;14.20;12.93;;;-0.10;99.90;;;;;;4973315;28;20188;-75
2023/04/20 04:29:12;;;;;;;13.10;12.07;;;-0.10;99.90;;;;;;4972469;28;20217;-75
2023/04/20 04:31:37;;;;;;;13.10;11.90;;;-0.10;99.90;;;;;;4974258;28;20256;-75
2023/04/20 04:34:03;;;;;;;13.97;12.87;;;-0.10;99.90;;;;;;4972925;28;20201;-75
2023/04/20 04:36:29;;;;;;;14.97;13.67;;;0.00;99.90;;;;;;4972617;28;20181;-73
2023/04/20 04:38:55;;;;;;;13.93;12.83;;;0.00;99.90;;;;;;4961959;28;20293;-73
2023/04/20 04:41:21;;;;;;;15.73;14.53;;;0.00;99.90;;;;;;4949567;28;20194;-73
2023/04/20 04:43:46;;;;;;;17.60;16.20;;;0.00;99.90;;;;;;4951514;28;20293;-73
2023/04/20 04:46:13;;;;;;;17.70;16.13;;;0.10;99.90;;;;;;4953110;28;20285;-73
2023/04/20 04:48:41;;;;;;;15.43;13.93;;;0.20;99.90;;;;;;4952672;29;20252;-73
2023/04/20 04:51:07;;;;;;;13.83;12.57;;;0.20;99.90;;;;;;4954332;29;20777;-73
2023/04/20 04:53:34;;;;;;;15.80;14.23;;;0.30;99.90;;;;;;4954914;28;20201;-72
2023/04/20 04:56:00;;;;;;;15.53;14.07;;;0.30;99.90;;;;;;4963418;28;20284;-72
2023/04/20 04:58:26;;;;;;;18.50;13.43;;;0.40;99.90;;;;;;4961239;28;20217;-73
2023/04/20 05:00:51;;;;;;;14.57;13.27;;;0.50;99.90;;;;;;4952828;29;20204;-73
2023/04/20 05:03:17;;;;;;;14.80;13.50;;;0.60;99.90;;;;;;4953954;29;20294;-73
2023/04/20 05:05:43;;;;;;;12.70;11.63;;;0.70;99.90;;;;;;4952757;29;20194;-72
2023/04/20 05:08:09;;;;;;;14.83;13.53;;;0.70;99.90;;;;;;4969410;28;20762;-70
2023/04/20 05:10:35;;;;;;;25.47;23.67;;;0.80;99.90;;;;;;4958243;28;20193;-70
2023/04/20 05:13:00;;;;;;;15.30;13.90;;;0.90;99.90;;;;;;4952316;29;20340;-69
2023/04/20 05:15:26;;;;;;;16.73;12.93;;;1.20;99.90;;;;;;4953510;28;20186;-70
2023/04/20 05:17:52;;;;;;;31.70;29.37;;;1.50;99.90;;;;;;4952038;28;20285;-70
2023/04/20 05:20:19;;;;;;;21.27;19.67;;;1.80;99.90;;;;;;4955928;28;20182;-70
2023/04/20 05:22:45;;;;;;;13.80;12.50;;;2.20;99.90;;;;;;4962255;28;20232;-70
2023/04/20 05:25:11;;;;;;;14.47;13.20;;;2.50;99.90;;;;;;4953161;28;20185;-70
2023/04/20 05:27:37;;;;;;;18.33;16.57;;;3.00;99.90;;;;;;4951617;28;20213;-70
2023/04/20 05:30:03;;;;;;;12.70;11.47;;;3.40;99.90;;;;;;4952961;28;20716;-70
2023/04/20 05:32:29;;;;;;;12.90;11.63;;;3.80;99.90;;;;;;4951765;29;20336;-70
2023/04/20 05:34:55;;;;;;;11.13;10.03;;;4.20;99.90;;;;;;4959638;28;20177;-71
2023/04/20 05:37:20;;;;;;;13.73;12.60;;;4.70;99.90;;;;;;4971645;28;20181;-70
2023/04/20 05:39:46;;;;;;;12.10;11.13;;;5.10;99.90;;;;;;4970990;28;20242;-70
2023/04/20 05:42:12;;;;;;;12.60;11.43;;;5.50;99.90;;;;;;4971120;28;20264;-71
2023/04/20 05:44:40;;;;;;;12.23;11.03;;;5.60;99.90;;;;;;4971878;28;20211;-70
2023/04/20 05:47:07;;;;;;;17.53;16.27;;;5.80;99.90;;;;;;4971955;28;20184;-71
2023/04/20 05:49:34;;;;;;;17.40;15.87;;;5.90;99.90;;;;;;4961318;28;20272;-71
2023/04/20 05:52:00;;;;;;;15.20;13.77;;;6.10;99.90;;;;;;4953088;28;20220;-71
2023/04/20 05:54:29;;;;;;;13.73;12.53;;;6.20;99.90;;;;;;4952934;28;20205;-71
2023/04/20 05:56:57;;;;;;;20.47;15.13;;;6.30;99.90;;;;;;4952815;28;20618;-71
2023/04/20 05:59:24;;;;;;;12.90;11.77;;;6.50;99.90;;;;;;4952916;28;20274;-71
2023/04/20 06:01:50;;;;;;;26.70;23.43;;;6.70;99.90;;;;;;4952814;28;20281;-71
2023/04/20 06:04:16;;;;;;;22.57;20.53;;;6.90;99.90;;;;;;4968925;28;20288;-71
2023/04/20 06:06:41;;;;;;;21.17;19.63;;;7.10;99.90;;;;;;4972256;28;20189;-70
2023/04/20 06:09:07;;;;;;;18.17;16.67;;;6.90;99.90;;;;;;4971377;28;20666;-71
2023/04/20 06:11:33;;;;;;;16.17;14.77;;;6.40;99.90;;;;;;4972665;28;20181;-71
2023/04/20 06:13:59;;;;;;;13.33;11.90;;;5.80;99.90;;;;;;4971931;28;20197;-71
2023/04/20 06:16:25;;;;;;;13.37;9.03;;;5.40;99.90;;;;;;4970226;28;20173;-71
2023/04/20 06:18:51;;;;;;;11.83;10.83;;;5.10;99.90;;;;;;4952440;28;20185;-71
2023/04/20 06:21:17;;;;;;;16.13;11.30;;;5.00;99.90;;;;;;4952816;28;20212;-71
2023/04/20 06:23:45;;;;;;;19.33;13.17;;;4.90;99.90;;;;;;4952610;28;20229;-71
2023/04/20 06:26:11;;;;;;;13.10;11.70;;;5.20;99.90;;;;;;4952422;28;20677;-70
2023/04/20 06:28:37;;;;;;;12.73;11.40;;;6.20;99.90;;;;;;4952053;28;20217;-71
2023/04/20 06:31:04;;;;;;;25.53;23.60;;;7.30;99.90;;;;;;4955768;28;20181;-71
2023/04/20 06:33:30;;;;;;;11.40;10.43;;;8.30;99.90;;;;;;4961939;28;20293;-71
2023/04/20 06:35:56;;;;;;;12.13;11.10;;;9.00;99.90;;;;;;4951145;29;20181;-71
2023/04/20 06:38:24;;;;;;;11.37;10.37;;;9.30;99.90;;;;;;4950904;29;20531;-71
2023/04/20 06:40:50;;;;;;;11.93;10.93;;;9.40;99.90;;;;;;4951824;29;20205;-71
2023/04/20 06:43:16;;;;;;;11.20;10.10;;;8.80;99.90;;;;;;4952357;29;20221;-70
2023/04/20 06:45:41;;;;;;;13.43;12.43;;;7.90;99.90;;;;;;4961862;28;20177;-71
2023/04/20 06:48:07;;;;;;;11.60;8.97;;;7.30;99.90;;;;;;4976368;28;20245;-70
2023/04/20 06:50:33;;;;;;;10.53;9.53;;;7.00;99.90;;;;;;4973298;28;20248;-71
2023/04/20 06:53:03;;;;;;;11.80;10.70;;;6.90;99.90;;;;;;4971733;28;20252;-71
2023/04/20 06:55:29;;;;;;;12.33;11.17;;;7.00;99.90;;;;;;5448888;23;20300;-71
2023/04/20 06:57:54;;;;;;;14.57;13.13;;;7.20;99.90;;;;;;4962269;28;20185;-72
2023/04/20 07:00:20;;;;;;;10.37;9.47;;;7.60;99.90;;;;;;4971377;28;20671;-71
2023/04/20 07:02:50;;;;;;;8.93;8.17;;;8.00;99.90;;;;;;4962426;28;20728;-71
2023/04/20 07:05:16;;;;;;;9.07;8.27;;;8.20;99.90;;;;;;4932020;29;20183;-71
2023/04/20 07:07:43;;;;;;;9.63;8.50;;;8.40;99.90;;;;;;4965797;23;20283;-73
2023/04/20 07:10:11;;;;;;;10.73;9.70;;;8.40;99.90;;;;;;4950817;28;20675;-73
2023/04/20 07:12:38;;;;;;;9.77;8.50;;;8.40;99.90;;;;;;4952314;28;20225;-73
2023/04/20 07:15:05;;;;;;;10.60;8.97;;;8.50;99.90;;;;;;4952418;29;20664;-72
2023/04/20 07:17:31;;;;;;;15.03;13.73;;;8.80;99.90;;;;;;4954137;28;20201;-73
2023/04/20 07:20:04;;;;;;;13.80;12.43;;;9.00;99.90;;;;;;4956063;28;20205;-73
2023/04/20 07:22:30;;;;;;;11.40;10.37;;;9.40;99.90;;;;;;4954980;29;20194;-73
2023/04/20 07:24:56;;;;;;;13.97;12.63;;;9.80;99.90;;;;;;4954729;29;20181;-73
2023/04/20 07:27:22;;;;;;;13.27;11.97;;;10.20;99.90;;;;;;4949064;28;20202;-73
2023/04/20 07:29:47;;;;;;;15.50;14.37;;;10.30;99.90;;;;;;4936605;29;20198;-71
2023/04/20 07:32:13;;;;;;;16.30;14.90;;;9.90;99.90;;;;;;4936740;29;20186;-73
2023/04/20 07:34:39;;;;;;;13.93;12.70;;;9.70;99.90;;;;;;4936767;29;20265;-74
2023/04/20 07:37:05;;;;;;;13.90;12.50;;;9.60;99.90;;;;;;4939698;29;20212;-74
2023/04/20 07:39:31;;;;;;;10.93;9.80;;;9.30;99.90;;;;;;4955479;28;20705;-74
2023/04/20 07:41:57;;;;;;;11.00;9.90;;;8.90;99.90;;;;;;4956436;29;20201;-73
2023/04/20 07:44:22;;;;;;;13.93;12.83;;;8.50;99.90;;;;;;4955254;29;20189;-73
2023/04/20 07:46:48;;;;;;;10.73;9.47;;;8.10;99.90;;;;;;4935564;29;20194;-73
2023/04/20 07:49:14;;;;;;;11.73;10.53;;;7.90;99.90;;;;;;4935841;29;20222;-74
2023/04/20 07:51:40;;;;;;;9.90;9.07;;;7.80;99.90;;;;;;4936383;29;20270;-73
2023/04/20 07:54:07;;;;;;;11.17;10.07;;;7.80;99.90;;;;;;4936275;29;20217;-73
2023/04/20 07:56:33;;;;;;;14.37;12.57;;;7.60;99.90;;;;;;4936229;29;20539;-73
2023/04/20 07:58:58;;;;;;;16.07;14.83;;;7.30;99.90;;;;;;4953585;29;20282;-73
2023/04/20 08:01:25;;;;;;;19.53;18.13;;;7.30;99.90;;;;;;4943190;28;20677;-73
2023/04/20 08:03:51;;;;;;;21.60;20.03;;;7.40;99.90;;;;;;4936311;29;20179;-73
2023/04/20 08:06:17;;;;;;;19.63;17.87;;;7.30;99.90;;;;;;4935905;29;20197;-72
2023/04/20 08:08:42;;;;;;;19.90;17.97;;;7.40;99.90;;;;;;4941671;29;20218;-73
2023/04/20 08:11:08;;;;;;;18.93;17.47;;;7.50;99.90;;;;;;4935974;29;20182;-72
2023/04/20 08:13:36;;;;;;;20.37;18.73;;;7.60;99.90;;;;;;4935863;29;20182;-73
2023/04/20 08:16:01;;;;;;;19.47;17.97;;;7.70;99.90;;;;;;4936075;29;20302;-73
2023/04/20 08:18:29;;;;;;;17.63;16.37;;;7.90;99.90;;;;;;4957226;29;20690;-74
2023/04/20 08:20:55;;;;;;;16.20;15.00;;;8.10;99.90;;;;;;4957928;28;20191;-74
2023/04/20 08:23:26;;;;;;;14.30;12.50;;;8.30;99.90;;;;;;4949285;28;20570;-74
2023/04/20 08:25:56;;;;;;;11.80;10.60;;;8.40;99.90;;;;;;4949387;29;20190;-74
2023/04/20 08:28:22;;;;;;;13.13;11.93;;;8.50;99.90;;;;;;4942342;28;20218;-74
2023/04/20 08:30:49;;;;;;;12.20;10.53;;;8.70;99.90;;;;;;4935615;29;20226;-74
2023/04/20 08:33:16;;;;;;;11.83;10.67;;;8.70;99.90;;;;;;4934311;29;20273;-74
2023/04/20 08:35:42;;;;;;;10.97;9.83;;;8.70;99.90;;;;;;4935494;29;20273;-74
2023/04/20 08:38:08;;;;;;;13.93;12.63;;;8.70;99.90;;;;;;4945368;29;20242;-74
2023/04/20 08:40:35;;;;;;;11.50;10.43;;;8.60;99.90;;;;;;4954719;28;20223;-74
2023/04/20 08:43:01;;;;;;;11.47;10.47;;;8.60;99.90;;;;;;4954669;28;20231;-74
2023/04/20 08:45:29;;;;;;;10.30;9.37;;;8.60;99.90;;;;;;4950356;29;20233;-74
2023/04/20 08:47:57;;;;;;;12.07;10.83;;;8.50;99.90;;;;;;4941260;29;20215;-74
2023/04/20 08:50:23;;;;;;;11.33;10.30;;;8.50;99.90;;;;;;4935283;29;20186;-74
2023/04/20 08:52:49;;;;;;;15.90;12.17;;;8.50;99.90;;;;;;4935224;29;20234;-74
2023/04/20 08:55:18;;;;;;;13.93;12.63;;;8.50;99.90;;;;;;4935228;29;20182;-74
2023/04/20 08:57:46;;;;;;;12.13;10.70;;;8.60;99.90;;;;;;4941359;29;20270;-73
2023/04/20 09:00:13;;;;;;;11.50;10.40;;;8.70;99.90;;;;;;5447270;23;20233;-73
2023/04/20 09:02:54;;;;;;;10.33;9.40;;;8.80;99.90;;;;;;4957284;28;20193;-73
2023/04/20 09:05:30;;;;;;;10.60;9.60;;;8.80;99.90;;;;;;4953963;28;20188;-73
2023/04/20 09:08:00;;;;;;;14.23;9.77;;;8.90;99.90;;;;;;4954625;28;20229;-74
2023/04/20 09:10:41;;;;;;;11.17;9.60;;;8.90;99.90;;;;;;4972334;28;20196;-73
2023/04/20 09:13:08;;;;;;;12.03;9.87;;;8.80;99.90;;;;;;4994312;23;20371;-70
2023/04/20 09:15:34;;;;;;;10.87;9.83;;;8.80;99.90;;;;;;4973318;28;20578;-71
2023/04/20 09:18:11;;;;;;;12.20;10.87;;;8.90;99.90;;;;;;4971788;28;20189;-71
2023/04/20 09:20:36;;;;;;;13.83;10.67;;;8.90;99.90;;;;;;4973782;28;20189;-71
2023/04/20 09:23:23;;;;;;;11.60;10.50;;;8.90;99.90;;;;;;4955443;28;20213;-71
2023/04/20 09:25:52;;;;;;;10.63;9.70;;;8.90;99.90;;;;;;4954516;28;20217;-71
2023/04/20 09:28:18;;;;;;;11.90;10.87;;;8.70;99.90;;;;;;4965376;28;20689;-71
2023/04/20 09:30:45;;;;;;;12.73;11.73;;;8.40;99.90;;;;;;4973413;28;20187;-71
2023/04/20 09:33:13;;;;;;;15.27;13.97;;;8.40;99.90;;;;;;4972781;28;20588;-71
2023/04/20 09:35:40;;;;;;;16.50;15.23;;;8.40;99.90;;;;;;4972348;28;20178;-70
2023/04/20 09:38:14;;;;;;;18.53;17.03;;;8.50;99.90;;;;;;4973244;28;20184;-70
2023/04/20 09:40:40;;;;;;;16.87;15.63;;;8.60;99.90;;;;;;4973561;28;20185;-71
2023/04/20 09:43:16;;;;;;;14.10;12.90;;;8.60;99.90;;;;;;4973239;28;20209;-71
2023/04/20 09:45:43;;;;;;;13.53;11.47;;;8.80;99.90;;;;;;4974090;28;20188;-71
2023/04/20 09:48:09;;;;;;;12.57;11.47;;;8.90;99.90;;;;;;4973562;28;20233;-71
2023/04/20 09:50:38;;;;;;;11.57;10.23;;;9.10;99.90;;;;;;4972304;28;20232;-72
2023/04/20 09:53:04;;;;;;;10.03;9.17;;;9.20;99.90;;;;;;4972972;28;20201;-71
2023/04/20 09:55:31;;;;;;;10.17;9.27;;;9.30;99.90;;;;;;4972011;28;20180;-71
2023/04/20 09:57:57;;;;;;;9.97;9.00;;;9.30;99.90;;;;;;4971403;28;20188;-71
2023/04/20 10:00:24;;;;;;;15.70;14.43;;;9.10;99.90;;;;;;4971671;28;20197;-71
2023/04/20 10:02:50;;;;;;;20.77;19.17;;;8.90;99.90;;;;;;4971479;28;20209;-72
2023/04/20 10:05:16;;;;;;;13.43;12.23;;;8.90;99.90;;;;;;4972849;28;20197;-71
2023/04/20 10:07:42;;;;;;;11.07;10.13;;;8.90;99.90;;;;;;4972222;28;20213;-71
2023/04/20 10:10:13;;;;;;;14.77;13.63;;;8.60;99.90;;;;;;4972516;28;20185;-72
2023/04/20 10:12:52;;;;;;;12.10;10.90;;;8.50;99.90;;;;;;4970939;28;20220;-71
2023/04/20 10:15:20;;;;;;;8.93;8.13;;;8.40;99.90;;;;;;4971845;28;20188;-71
2023/04/20 10:17:47;;;;;;;11.37;10.27;;;8.40;99.90;;;;;;4971825;28;20240;-71
2023/04/20 10:20:19;;;;;;;12.47;11.17;;;8.30;99.90;;;;;;4972116;28;20185;-71
2023/04/20 10:22:45;;;;;;;13.43;12.17;;;8.50;99.90;;;;;;4970271;28;20212;-71
2023/04/20 10:25:18;;;;;;;12.33;11.13;;;8.60;99.90;;;;;;4972536;28;20189;-71
2023/04/20 10:27:56;;;;;;;13.50;10.17;;;8.60;99.90;;;;;;4972659;28;20220;-71
2023/04/20 10:30:24;;;;;;;13.13;11.77;;;8.60;99.90;;;;;;4972960;28;20231;-70
2023/04/20 10:33:11;;;;;;;14.63;11.77;;;8.40;99.90;;;;;;4971994;28;20197;-70
2023/04/20 10:35:51;;;;;;;13.97;12.50;;;8.60;99.90;;;;;;4953049;29;20556;-70
2023/04/20 10:38:33;;;;;;;13.63;11.80;;;8.80;99.90;;;;;;5459492;23;20229;-70
2023/04/20 10:41:06;;;;;;;11.43;10.10;;;8.80;99.90;;;;;;4953243;28;20299;-70
2023/04/20 10:43:34;;;;;;;11.03;9.93;;;8.80;99.90;;;;;;4967415;28;20320;-70
2023/04/20 10:46:00;;;;;;;14.20;11.00;;;8.70;99.90;;;;;;4971143;28;20223;-70
2023/04/20 10:48:26;;;;;;;13.00;11.60;;;8.80;99.90;;;;;;4971616;28;20217;-71
2023/04/20 10:50:51;;;;;;;13.37;11.97;;;8.90;99.90;;;;;;4971307;28;20184;-71
2023/04/20 10:53:19;;;;;;;12.20;11.00;;;8.90;99.90;;;;;;4992726;23;20240;-72
2023/04/20 10:55:45;;;;;;;12.77;11.57;;;8.80;99.90;;;;;;4972140;28;20184;-73
2023/04/20 10:58:21;;;;;;;14.93;13.63;;;8.90;99.90;;;;;;4971794;28;20221;-73
2023/04/20 11:01:00;;;;;;;16.70;15.20;;;8.90;99.90;;;;;;4955612;28;20641;-72
2023/04/20 11:03:30;;;;;;;17.83;16.13;;;9.10;99.90;;;;;;4952858;28;20206;-72
2023/04/20 11:06:00;;;;;;;19.27;17.63;;;9.10;99.90;;;;;;4961175;28;20196;-72
2023/04/20 11:08:42;;;;;;;19.97;17.93;;;9.20;99.90;;;;;;4970477;28;20278;-72
2023/04/20 11:11:28;;;;;;;17.43;16.07;;;9.30;99.90;;;;;;4970613;28;20177;-72
2023/04/20 11:14:12;;;;;;;16.60;15.17;;;9.40;99.90;;;;;;4952849;28;20186;-72
2023/04/20 11:16:39;;;;;;;18.37;16.60;;;9.40;99.90;;;;;;4953017;28;20256;-73
2023/04/20 11:19:05;;;;;;;17.23;15.57;;;9.50;99.90;;;;;;4953688;28;20333;-72
2023/04/20 11:21:41;;;;;;;14.17;12.87;;;9.70;99.90;;;;;;4972020;28;20268;-72
2023/04/20 11:24:18;;;;;;;13.27;11.97;;;10.10;99.90;;;;;;4972241;28;20236;-72
2023/04/20 11:26:45;;;;;;;13.80;12.47;;;10.50;99.90;;;;;;4971028;28;20271;-72
2023/04/20 11:29:11;;;;;;;13.53;12.23;;;10.70;99.90;;;;;;4969974;28;20201;-73
2023/04/20 11:31:37;;;;;;;7.93;7.33;;;11.20;99.90;;;;;;4971508;28;20209;-73
2023/04/20 11:34:06;;;;;;;10.93;9.87;;;11.80;99.90;;;;;;4971506;28;20192;-72
2023/04/20 11:36:37;;;;;;;11.47;10.57;;;12.00;99.90;;;;;;4972385;28;20715;-73
2023/04/20 11:39:12;;;;;;;12.03;10.97;;;12.20;99.90;;;;;;4970335;28;20672;-71
2023/04/20 11:41:38;;;;;;;11.13;10.13;;;11.50;99.90;;;;;;4971772;28;20307;-72
2023/04/20 11:44:05;;;;;;;8.53;7.83;;;11.30;99.90;;;;;;4971192;28;20616;-72
2023/04/20 11:46:36;;;;;;;9.37;8.50;;;10.80;99.90;;;;;;4971799;28;20177;-72
2023/04/20 11:49:03;;;;;;;9.70;8.83;;;10.60;99.90;;;;;;4969848;28;20216;-72
2023/04/20 11:51:30;;;;;;;11.00;10.10;;;10.70;99.90;;;;;;4969828;28;20239;-72
2023/04/20 11:53:55;;;;;;;11.60;10.50;;;10.80;99.90;;;;;;4970689;28;20188;-72
2023/04/20 11:56:22;;;;;;;9.60;8.80;;;10.80;99.90;;;;;;4971819;28;20177;-72
2023/04/20 11:58:48;;;;;;;12.27;11.07;;;10.50;99.90;;;;;;4971264;28;20255;-72
2023/04/20 12:01:15;;;;;;;11.33;10.23;;;10.40;99.90;;;;;;4971291;28;20222;-72
2023/04/20 12:06:16;;;;;;;9.20;8.30;;;10.10;99.90;;;;;;4979227;23;20307;-72
2023/04/20 12:08:42;;;;;;;10.83;9.70;;;10.00;99.90;;;;;;4964155;28;20232;-72
2023/04/20 12:11:08;;;;;;;8.93;8.13;;;9.90;99.90;;;;;;4954704;29;20181;-72
2023/04/20 12:13:34;;;;;;;10.13;8.90;;;9.90;99.90;;;;;;4971774;28;20586;-72
2023/04/20 12:16:00;;;;;;;8.50;7.80;;;9.90;99.90;;;;;;4973336;28;20553;-72
2023/04/20 12:18:26;;;;;;;9.73;8.80;;;9.90;99.90;;;;;;4974702;28;20193;-72
2023/04/20 12:20:51;;;;;;;10.53;9.63;;;9.70;99.90;;;;;;4995838;23;20240;-72
2023/04/20 12:23:17;;;;;;;10.40;9.70;;;9.70;99.90;;;;;;4974941;28;20689;-72
2023/04/20 12:25:43;;;;;;;12.23;11.23;;;9.60;99.90;;;;;;4974719;28;20276;-72
2023/04/20 12:28:08;;;;;;;27.87;25.90;;;9.40;99.90;;;;;;4974508;28;20217;-71
2023/04/20 12:30:34;;;;;;;77.63;73.00;;;9.30;99.90;;;;;;4973649;28;20248;-75
2023/04/20 12:33:02;;;;;;;20.73;19.33;;;9.30;99.90;;;;;;4966923;28;20713;-70
2023/04/20 12:35:28;;;;;;;19.90;18.50;;;9.20;99.90;;;;;;4954330;29;20221;-71
2023/04/20 12:37:54;;;;;;;19.40;18.10;;;9.20;99.90;;;;;;4953852;29;20186;-71
2023/04/20 12:40:21;;;;;;;19.03;17.83;;;9.10;99.90;;;;;;4955291;28;20208;-72
2023/04/20 12:42:47;;;;;;;16.33;15.07;;;9.00;99.90;;;;;;4958425;28;20390;-72
2023/04/20 12:45:13;;;;;;;12.70;11.70;;;9.00;99.90;;;;;;4973513;28;20185;-71
2023/04/20 12:47:39;;;;;;;15.80;14.40;;;9.10;99.90;;;;;;4974201;28;20191;-72
2023/04/20 12:50:06;;;;;;;14.50;13.13;;;9.10;99.90;;;;;;4973431;28;20220;-72
2023/04/20 12:52:32;;;;;;;16.03;15.10;;;9.10;99.90;;;;;;4972394;28;20220;-71
2023/04/20 12:54:59;;;;;;;19.67;18.27;;;9.10;99.90;;;;;;4975113;28;20192;-72
2023/04/20 12:57:24;;;;;;;14.60;13.60;;;8.90;99.90;;;;;;4974310;28;20232;-71
2023/04/20 12:59:50;;;;;;;16.57;15.37;;;8.90;99.90;;;;;;4973863;28;20193;-71
2023/04/20 13:02:16;;;;;;;15.37;14.37;;;8.90;99.90;;;;;;4972785;28;20713;-70
2023/04/20 13:04:42;;;;;;;14.00;12.80;;;8.90;99.90;;;;;;4953943;28;20178;-71
2023/04/20 13:07:08;;;;;;;17.23;16.10;;;9.00;99.90;;;;;;4953403;29;20188;-71
2023/04/20 13:09:34;;;;;;;16.37;14.77;;;9.00;99.90;;;;;;4954744;28;20241;-71
2023/04/20 13:12:00;;;;;;;15.03;13.77;;;8.90;99.90;;;;;;4954822;29;20650;-73
2023/04/20 13:14:26;;;;;;;13.00;11.93;;;9.00;99.90;;;;;;5448327;23;20301;-69
2023/04/20 13:16:51;;;;;;;14.53;13.33;;;9.00;99.90;;;;;;4962427;28;20244;-69
2023/04/20 13:19:18;;;;;;;18.80;17.37;;;9.10;99.90;;;;;;4954871;28;20193;-73
2023/04/20 13:21:44;;;;;;;16.97;15.47;;;9.20;99.90;;;;;;4973928;28;20544;-71
2023/04/20 13:24:10;;;;;;;18.63;16.93;;;9.30;99.90;;;;;;4973369;28;20208;-71
2023/04/20 13:26:36;;;;;;;16.93;15.80;;;9.30;99.90;;;;;;4995171;23;20213;-72
2023/04/20 13:29:02;;;;;;;19.43;18.03;;;9.30;99.90;;;;;;4971684;28;20223;-72
2023/04/20 13:31:28;;;;;;;18.50;17.20;;;9.30;99.90;;;;;;4973932;28;20181;-72
2023/04/20 13:33:55;;;;;;;12.93;12.00;;;9.20;99.90;;;;;;4973712;28;20646;-72
2023/04/20 13:36:24;;;;;;;14.40;13.17;;;9.10;99.90;;;;;;4965979;28;20669;-72
2023/04/20 13:38:52;;;;;;;14.13;13.33;;;9.00;99.90;;;;;;4971290;28;20581;-74
2023/04/20 13:41:18;;;;;;;10.70;9.83;;;8.90;99.90;;;;;;4973670;28;20617;-74
2023/04/20 13:43:44;;;;;;;8.77;8.00;;;8.70;99.90;;;;;;4974007;28;20271;-73
2023/04/20 13:46:10;;;;;;;9.90;9.00;;;8.60;99.90;;;;;;4973236;28;20274;-74
2023/04/20 13:48:37;;;;;;;11.13;10.13;;;8.40;99.90;;;;;;4971786;28;20276;-73
2023/04/20 13:51:03;;;;;;;9.53;8.63;;;8.40;99.90;;;;;;4973406;28;20649;-73
2023/04/20 13:53:29;;;;;;;8.47;7.77;;;8.40;99.90;;;;;;4972096;28;20221;-74
2023/04/20 13:55:56;;;;;;;12.53;11.33;;;8.40;99.90;;;;;;4973012;28;20237;-74
2023/04/20 13:58:21;;;;;;;7.80;7.20;;;8.50;99.90;;;;;;4971472;28;20336;-74
2023/04/20 14:00:47;;;;;;;6.93;6.43;;;8.40;99.90;;;;;;4972401;28;20284;-74
2023/04/20 14:03:14;;;;;;;9.23;8.53;;;8.30;99.90;;;;;;4973221;28;20934;-75
2023/04/20 14:05:40;;;;;;;9.17;8.43;;;8.30;99.90;;;;;;4972343;28;20188;-74
2023/04/20 14:08:06;;;;;;;10.47;9.67;;;8.20;99.90;;;;;;4971137;28;20209;-74
2023/04/20 14:10:32;;;;;;;9.27;8.67;;;8.20;99.90;;;;;;4972916;28;20852;-74
2023/04/20 14:13:01;;;;;;;10.83;9.73;;;8.20;99.90;;;;;;4972957;28;20188;-74
2023/04/20 14:15:27;;;;;;;13.40;12.33;;;8.20;99.90;;;;;;4974609;28;20209;-74
2023/04/20 14:17:53;;;;;;;12.20;11.40;;;8.30;99.90;;;;;;4974113;28;20224;-74
2023/04/20 14:20:19;;;;;;;18.13;16.83;;;8.20;99.90;;;;;;4972776;28;20193;-74
2023/04/20 14:22:45;;;;;;;21.40;19.97;;;8.20;99.90;;;;;;4974151;28;20641;-74
2023/04/20 14:25:11;;;;;;;25.53;24.03;;;8.20;99.90;;;;;;4973883;28;20181;-73
2023/04/20 14:27:36;;;;;;;25.77;24.17;;;8.20;99.90;;;;;;4974465;28;20217;-74
2023/04/20 14:30:03;;;;;;;26.50;25.00;;;8.20;99.90;;;;;;4971469;28;20173;-72
2023/04/20 14:32:29;;;;;;;25.90;24.27;;;8.20;99.90;;;;;;4970495;28;20185;-73
2023/04/20 14:34:55;;;;;;;19.63;18.33;;;8.20;99.90;;;;;;4972492;28;20177;-73
2023/04/20 14:37:23;;;;;;;18.40;17.20;;;8.20;99.90;;;;;;4970320;28;20212;-73
2023/04/20 14:39:49;;;;;;;23.17;21.67;;;8.20;99.90;;;;;;4972884;28;20719;-73
2023/04/20 14:42:15;;;;;;;19.10;17.90;;;8.20;99.90;;;;;;4973315;28;20653;-73
2023/04/20 14:44:41;;;;;;;19.37;17.87;;;8.10;99.90;;;;;;4972718;28;20192;-73
2023/04/20 14:47:07;;;;;;;13.40;12.30;;;8.10;99.90;;;;;;4971877;28;20276;-73
2023/04/20 14:49:32;;;;;;;15.33;14.20;;;8.10;99.90;;;;;;4971131;28;20733;-72
2023/04/20 14:51:58;;;;;;;14.17;13.17;;;8.10;99.90;;;;;;4971826;28;20191;-73
2023/04/20 14:54:24;;;;;;;16.47;15.17;;;8.20;99.90;;;;;;4970898;28;20271;-74
2023/04/20 14:56:50;;;;;;;14.77;13.73;;;8.30;99.90;;;;;;4971255;28;20228;-72
2023/04/20 14:59:16;;;;;;;17.60;16.00;;;8.40;99.90;;;;;;4972500;28;20190;-73
2023/04/20 15:01:43;;;;;;;12.67;11.50;;;8.40;99.90;;;;;;4971742;28;20185;-73
2023/04/20 15:04:09;;;;;;;15.20;14.10;;;8.40;99.90;;;;;;4972496;28;20650;-73
2023/04/20 15:06:34;;;;;;;14.60;13.53;;;8.50;99.90;;;;;;4971981;28;20191;-73
2023/04/20 15:09:00;;;;;;;27.57;25.37;;;8.50;99.90;;;;;;4971775;28;20212;-75
2023/04/20 15:11:26;;;;;;;38.17;35.80;;;8.40;99.90;;;;;;4971089;28;20186;-74
2023/04/20 15:13:53;;;;;;;52.37;48.37;;;8.50;99.90;;;;;;4971648;28;20193;-74
2023/04/20 15:16:19;;;;;;;57.10;52.53;;;8.40;99.90;;;;;;4965695;28;20236;-73
2023/04/20 15:18:45;;;;;;;64.03;58.63;;;8.50;99.90;;;;;;4951798;28;20206;-72
2023/04/20 15:21:11;;;;;;;69.23;63.37;;;8.40;99.90;;;;;;4962508;28;20185;-72
2023/04/20 15:23:37;;;;;;;66.83;61.00;;;8.50;99.90;;;;;;4970830;28;20221;-72
2023/04/20 15:26:03;;;;;;;44.23;41.30;;;8.50;99.90;;;;;;4971387;28;20219;-73
2023/04/20 15:28:29;;;;;;;54.07;49.93;;;8.50;99.90;;;;;;4969444;28;20232;-73
2023/04/20 15:30:55;;;;;;;48.97;45.90;;;8.50;99.90;;;;;;4964206;28;20194;-73
2023/04/20 15:33:21;;;;;;;56.20;52.60;;;8.50;99.90;;;;;;4970716;28;20181;-72
2023/04/20 15:35:47;;;;;;;57.37;53.50;;;8.40;99.90;;;;;;4971710;28;20227;-73
2023/04/20 15:38:12;;;;;;;44.70;42.03;;;8.40;99.90;;;;;;4972908;28;20212;-73
2023/04/20 15:43:14;;;;;;;16.43;15.23;;;8.30;99.90;;;;;;4982567;23;20264;-73
2023/04/20 15:45:40;;;;;;;18.13;16.73;;;8.20;99.90;;;;;;4955982;28;20193;-73